sensor_id;sensor_type;location;lat;lon;timestamp;temperature;humidity
21635;DHT22;10979;48.306;9.830;2022-11-22T00:00:28;3.40;99.90
21635;DHT22;10979;48.306;9.830;2022-11-22T00:02:54;3.50;99.90
21635;DHT22;10979;48.306;9.830;2022-11-22T00:05:20;3.50;99.90
21635;DHT22;10979;48.306;9.830;2022-11-22T00:07:45;3.50;99.90
21635;DHT22;10979;48.306;9.830;2022-11-22T00:10:12;3.50;99.90
21635;DHT22;10979;48.306;9.830;2022-11-22T00:12:39;3.50;99.90
21635;DHT22;10979;48.306;9.830;2022-11-22T00:15:05;3.40;99.90
21635;DHT22;10979;48.306;9.830;2022-11-22T00:17:32;3.30;99.90
21635;DHT22;10979;48.306;9.830;2022-11-22T00:19:58;3.30;99.90
21635;DHT22;10979;48.306;9.830;2022-11-22T00:22:24;3.30;99.90
21635;DHT22;10979;48.306;9.830;2022-11-22T00:24:50;3.20;99.90
21635;DHT22;10979;48.306;9.830;2022-11-22T00:27:17;3.10;99.90
21635;DHT22;10979;48.306;9.830;2022-11-22T00:29:43;3.10;99.90
21635;DHT22;10979;48.306;9.830;2022-11-22T00:32:09;3.20;99.90
21635;DHT22;10979;48.306;9.830;2022-11-22T00:34:34;3.20;99.90
21635;DHT22;10979;48.306;9.830;2022-11-22T00:37:00;3.30;99.90
21635;DHT22;10979;48.306;9.830;2022-11-22T00:39:25;3.40;99.90
21635;DHT22;10979;48.306;9.830;2022-11-22T00:41:51;3.40;99.90
21635;DHT22;10979;48.306;9.830;2022-11-22T00:44:16;3.40;99.90
21635;DHT22;10979;48.306;9.830;2022-11-22T00:46:42;3.50;99.90
21635;DHT22;10979;48.306;9.830;2022-11-22T00:49:07;3.40;99.90
21635;DHT22;10979;48.306;9.830;2022-11-22T00:51:33;3.50;99.90
21635;DHT22;10979;48.306;9.830;2022-11-22T00:53:58;3.50;99.90
21635;DHT22;10979;48.306;9.830;2022-11-22T00:56:24;3.50;99.90
21635;DHT22;10979;48.306;9.830;2022-11-22T00:58:50;3.50;99.90
21635;DHT22;10979;48.306;9.830;2022-11-22T01:01:15;3.50;99.90
21635;DHT22;10979;48.306;9.830;2022-11-22T01:03:41;3.50;99.90
21635;DHT22;10979;48.306;9.830;2022-11-22T01:06:06;3.50;99.90
21635;DHT22;10979;48.306;9.830;2022-11-22T01:08:32;3.50;99.90
21635;DHT22;10979;48.306;9.830;2022-11-22T01:10:59;3.60;99.90
21635;DHT22;10979;48.306;9.830;2022-11-22T01:13:27;3.60;99.90
21635;DHT22;10979;48.306;9.830;2022-11-22T01:19:15;3.50;99.90
21635;DHT22;10979;48.306;9.830;2022-11-22T01:21:40;3.50;99.90
21635;DHT22;10979;48.306;9.830;2022-11-22T01:24:07;3.60;99.90
21635;DHT22;10979;48.306;9.830;2022-11-22T01:26:33;3.60;99.90
21635;DHT22;10979;48.306;9.830;2022-11-22T01:28:59;3.60;99.90
21635;DHT22;10979;48.306;9.830;2022-11-22T01:31:24;3.60;99.90
21635;DHT22;10979;48.306;9.830;2022-11-22T01:33:50;3.70;99.90
21635;DHT22;10979;48.306;9.830;2022-11-22T01:36:15;3.70;99.90
21635;DHT22;10979;48.306;9.830;2022-11-22T01:38:41;3.70;99.90
21635;DHT22;10979;48.306;9.830;2022-11-22T01:41:06;3.60;99.90
21635;DHT22;10979;48.306;9.830;2022-11-22T01:43:32;3.60;99.90
21635;DHT22;10979;48.306;9.830;2022-11-22T01:46:04;3.70;99.90
21635;DHT22;10979;48.306;9.830;2022-11-22T01:48:51;3.80;99.90
21635;DHT22;10979;48.306;9.830;2022-11-22T01:51:23;3.80;99.90
21635;DHT22;10979;48.306;9.830;2022-11-22T01:53:51;3.70;99.90
21635;DHT22;10979;48.306;9.830;2022-11-22T01:56:19;3.80;99.90
21635;DHT22;10979;48.306;9.830;2022-11-22T01:58:49;3.70;99.90
21635;DHT22;10979;48.306;9.830;2022-11-22T02:01:15;3.70;99.90
21635;DHT22;10979;48.306;9.830;2022-11-22T02:03:43;3.70;99.90
21635;DHT22;10979;48.306;9.830;2022-11-22T02:06:10;3.70;99.90
21635;DHT22;10979;48.306;9.830;2022-11-22T02:08:44;3.80;99.90
21635;DHT22;10979;48.306;9.830;2022-11-22T02:11:11;3.80;99.90
21635;DHT22;10979;48.306;9.830;2022-11-22T02:13:41;3.80;99.90
21635;DHT22;10979;48.306;9.830;2022-11-22T02:16:08;3.90;99.90
21635;DHT22;10979;48.306;9.830;2022-11-22T02:18:35;3.90;99.90
21635;DHT22;10979;48.306;9.830;2022-11-22T02:21:02;4.00;99.90
21635;DHT22;10979;48.306;9.830;2022-11-22T02:26:13;3.90;99.90
21635;DHT22;10979;48.306;9.830;2022-11-22T02:28:39;4.00;99.90
21635;DHT22;10979;48.306;9.830;2022-11-22T02:31:05;4.00;99.90
21635;DHT22;10979;48.306;9.830;2022-11-22T02:33:31;4.00;99.90
21635;DHT22;10979;48.306;9.830;2022-11-22T02:35:57;4.00;99.90
21635;DHT22;10979;48.306;9.830;2022-11-22T02:38:30;4.00;99.90
21635;DHT22;10979;48.306;9.830;2022-11-22T02:41:03;4.10;99.90
21635;DHT22;10979;48.306;9.830;2022-11-22T02:43:37;4.00;99.90
21635;DHT22;10979;48.306;9.830;2022-11-22T02:46:08;4.10;99.90
21635;DHT22;10979;48.306;9.830;2022-11-22T02:48:42;4.20;99.90
21635;DHT22;10979;48.306;9.830;2022-11-22T02:51:08;4.20;99.90
21635;DHT22;10979;48.306;9.830;2022-11-22T02:53:34;4.20;99.90
21635;DHT22;10979;48.306;9.830;2022-11-22T02:56:00;4.20;99.90
21635;DHT22;10979;48.306;9.830;2022-11-22T02:58:26;4.20;99.90
21635;DHT22;10979;48.306;9.830;2022-11-22T03:00:51;4.20;99.90
21635;DHT22;10979;48.306;9.830;2022-11-22T03:03:17;4.30;99.90
21635;DHT22;10979;48.306;9.830;2022-11-22T03:05:42;4.30;99.90
21635;DHT22;10979;48.306;9.830;2022-11-22T03:08:08;4.40;99.90
21635;DHT22;10979;48.306;9.830;2022-11-22T03:10:33;4.40;99.90
21635;DHT22;10979;48.306;9.830;2022-11-22T03:12:59;4.40;99.90
21635;DHT22;10979;48.306;9.830;2022-11-22T03:15:25;4.40;99.90
21635;DHT22;10979;48.306;9.830;2022-11-22T03:18:00;4.40;99.90
21635;DHT22;10979;48.306;9.830;2022-11-22T03:20:27;4.40;99.90
21635;DHT22;10979;48.306;9.830;2022-11-22T03:22:53;4.30;99.90
21635;DHT22;10979;48.306;9.830;2022-11-22T03:25:18;4.30;99.90
21635;DHT22;10979;48.306;9.830;2022-11-22T03:27:44;4.20;99.90
21635;DHT22;10979;48.306;9.830;2022-11-22T03:30:10;4.10;99.90
21635;DHT22;10979;48.306;9.830;2022-11-22T03:32:36;4.10;99.90
21635;DHT22;10979;48.306;9.830;2022-11-22T03:35:01;4.10;99.90
21635;DHT22;10979;48.306;9.830;2022-11-22T03:37:27;4.00;99.90
21635;DHT22;10979;48.306;9.830;2022-11-22T03:39:52;4.00;99.90
21635;DHT22;10979;48.306;9.830;2022-11-22T03:42:18;3.90;99.90
21635;DHT22;10979;48.306;9.830;2022-11-22T03:44:44;3.90;99.90
21635;DHT22;10979;48.306;9.830;2022-11-22T03:47:09;3.90;99.90
21635;DHT22;10979;48.306;9.830;2022-11-22T03:49:35;3.80;99.90
21635;DHT22;10979;48.306;9.830;2022-11-22T03:52:00;3.80;99.90
21635;DHT22;10979;48.306;9.830;2022-11-22T03:54:26;3.70;99.90
21635;DHT22;10979;48.306;9.830;2022-11-22T03:56:51;3.80;99.90
21635;DHT22;10979;48.306;9.830;2022-11-22T03:59:17;3.70;99.90
21635;DHT22;10979;48.306;9.830;2022-11-22T04:01:42;3.70;99.90
21635;DHT22;10979;48.306;9.830;2022-11-22T04:04:09;3.60;99.90
21635;DHT22;10979;48.306;9.830;2022-11-22T04:06:35;3.60;99.90
21635;DHT22;10979;48.306;9.830;2022-11-22T04:09:00;3.50;99.90
21635;DHT22;10979;48.306;9.830;2022-11-22T04:11:26;3.40;99.90
21635;DHT22;10979;48.306;9.830;2022-11-22T04:13:52;3.40;99.90
21635;DHT22;10979;48.306;9.830;2022-11-22T04:16:36;3.30;99.90
21635;DHT22;10979;48.306;9.830;2022-11-22T04:19:01;3.10;99.90
21635;DHT22;10979;48.306;9.830;2022-11-22T04:21:27;2.90;99.90
21635;DHT22;10979;48.306;9.830;2022-11-22T04:24:08;2.70;99.90
21635;DHT22;10979;48.306;9.830;2022-11-22T04:26:53;2.80;99.90
21635;DHT22;10979;48.306;9.830;2022-11-22T04:29:19;2.70;99.90
21635;DHT22;10979;48.306;9.830;2022-11-22T04:31:45;2.70;99.90
21635;DHT22;10979;48.306;9.830;2022-11-22T04:34:30;2.60;99.90
21635;DHT22;10979;48.306;9.830;2022-11-22T04:36:56;2.60;99.90
21635;DHT22;10979;48.306;9.830;2022-11-22T04:39:22;2.40;99.90
21635;DHT22;10979;48.306;9.830;2022-11-22T04:41:47;2.40;99.90
21635;DHT22;10979;48.306;9.830;2022-11-22T04:44:33;2.50;99.90
21635;DHT22;10979;48.306;9.830;2022-11-22T04:47:15;2.40;99.90
21635;DHT22;10979;48.306;9.830;2022-11-22T04:50:10;2.20;99.90
21635;DHT22;10979;48.306;9.830;2022-11-22T04:52:55;2.40;99.90
21635;DHT22;10979;48.306;9.830;2022-11-22T04:55:21;2.30;99.90
21635;DHT22;10979;48.306;9.830;2022-11-22T04:57:47;2.10;99.90
21635;DHT22;10979;48.306;9.830;2022-11-22T05:00:13;2.10;99.90
21635;DHT22;10979;48.306;9.830;2022-11-22T05:02:38;2.00;99.90
21635;DHT22;10979;48.306;9.830;2022-11-22T05:05:04;1.80;99.90
21635;DHT22;10979;48.306;9.830;2022-11-22T05:07:32;1.70;99.90
21635;DHT22;10979;48.306;9.830;2022-11-22T05:09:58;1.70;99.90
21635;DHT22;10979;48.306;9.830;2022-11-22T05:12:23;1.60;99.90
21635;DHT22;10979;48.306;9.830;2022-11-22T05:14:49;1.60;99.90
21635;DHT22;10979;48.306;9.830;2022-11-22T05:17:14;1.70;99.90
21635;DHT22;10979;48.306;9.830;2022-11-22T05:19:40;1.60;99.90
21635;DHT22;10979;48.306;9.830;2022-11-22T05:22:05;1.50;99.90
21635;DHT22;10979;48.306;9.830;2022-11-22T05:24:31;1.60;99.90
21635;DHT22;10979;48.306;9.830;2022-11-22T05:26:56;1.50;99.90
21635;DHT22;10979;48.306;9.830;2022-11-22T05:29:22;1.60;99.90
21635;DHT22;10979;48.306;9.830;2022-11-22T05:31:47;1.40;99.90
21635;DHT22;10979;48.306;9.830;2022-11-22T05:34:13;1.30;99.90
21635;DHT22;10979;48.306;9.830;2022-11-22T05:36:39;1.30;99.90
21635;DHT22;10979;48.306;9.830;2022-11-22T05:39:04;1.40;99.90
21635;DHT22;10979;48.306;9.830;2022-11-22T05:41:30;1.20;99.90
21635;DHT22;10979;48.306;9.830;2022-11-22T05:43:56;1.00;99.90
21635;DHT22;10979;48.306;9.830;2022-11-22T05:46:27;1.30;99.90
21635;DHT22;10979;48.306;9.830;2022-11-22T05:48:54;1.50;99.90
21635;DHT22;10979;48.306;9.830;2022-11-22T05:51:24;1.40;99.90
21635;DHT22;10979;48.306;9.830;2022-11-22T05:53:50;1.40;99.90
21635;DHT22;10979;48.306;9.830;2022-11-22T05:56:18;1.40;99.90
21635;DHT22;10979;48.306;9.830;2022-11-22T05:58:44;1.50;99.90
21635;DHT22;10979;48.306;9.830;2022-11-22T06:01:12;1.70;99.90
21635;DHT22;10979;48.306;9.830;2022-11-22T06:03:38;1.80;99.90
21635;DHT22;10979;48.306;9.830;2022-11-22T06:06:05;1.80;99.90
21635;DHT22;10979;48.306;9.830;2022-11-22T06:08:32;2.00;99.90
21635;DHT22;10979;48.306;9.830;2022-11-22T06:11:26;2.20;99.90
21635;DHT22;10979;48.306;9.830;2022-11-22T06:14:00;2.30;99.90
21635;DHT22;10979;48.306;9.830;2022-11-22T06:16:29;2.40;99.90
21635;DHT22;10979;48.306;9.830;2022-11-22T06:18:55;2.50;99.90
21635;DHT22;10979;48.306;9.830;2022-11-22T06:21:23;2.50;99.90
21635;DHT22;10979;48.306;9.830;2022-11-22T06:23:52;2.60;99.90
21635;DHT22;10979;48.306;9.830;2022-11-22T06:26:20;2.60;99.90
21635;DHT22;10979;48.306;9.830;2022-11-22T06:28:46;2.70;99.90
21635;DHT22;10979;48.306;9.830;2022-11-22T06:31:18;2.80;99.90
21635;DHT22;10979;48.306;9.830;2022-11-22T06:33:44;2.80;99.90
21635;DHT22;10979;48.306;9.830;2022-11-22T06:36:21;2.70;99.90
21635;DHT22;10979;48.306;9.830;2022-11-22T06:38:47;2.80;99.90
21635;DHT22;10979;48.306;9.830;2022-11-22T06:41:23;2.90;99.90
21635;DHT22;10979;48.306;9.830;2022-11-22T06:43:51;2.90;99.90
21635;DHT22;10979;48.306;9.830;2022-11-22T06:46:19;2.90;99.90
21635;DHT22;10979;48.306;9.830;2022-11-22T06:48:45;2.90;99.90
21635;DHT22;10979;48.306;9.830;2022-11-22T06:51:14;2.90;99.90
21635;DHT22;10979;48.306;9.830;2022-11-22T06:53:40;3.00;99.90
21635;DHT22;10979;48.306;9.830;2022-11-22T06:56:14;3.10;99.90
21635;DHT22;10979;48.306;9.830;2022-11-22T06:58:40;3.30;99.90
21635;DHT22;10979;48.306;9.830;2022-11-22T07:01:09;3.20;99.90
21635;DHT22;10979;48.306;9.830;2022-11-22T07:03:38;3.20;99.90
21635;DHT22;10979;48.306;9.830;2022-11-22T07:06:05;3.10;99.90
21635;DHT22;10979;48.306;9.830;2022-11-22T07:08:31;3.10;99.90
21635;DHT22;10979;48.306;9.830;2022-11-22T07:11:09;3.10;99.90
21635;DHT22;10979;48.306;9.830;2022-11-22T07:13:36;3.20;99.90
21635;DHT22;10979;48.306;9.830;2022-11-22T07:16:04;3.30;99.90
21635;DHT22;10979;48.306;9.830;2022-11-22T07:18:30;3.50;99.90
21635;DHT22;10979;48.306;9.830;2022-11-22T07:21:05;3.40;99.90
21635;DHT22;10979;48.306;9.830;2022-11-22T07:23:30;3.50;99.90
21635;DHT22;10979;48.306;9.830;2022-11-22T07:25:56;3.40;99.90
21635;DHT22;10979;48.306;9.830;2022-11-22T07:28:22;3.60;99.90
21635;DHT22;10979;48.306;9.830;2022-11-22T07:30:48;3.70;99.90
21635;DHT22;10979;48.306;9.830;2022-11-22T07:33:13;3.70;99.90
21635;DHT22;10979;48.306;9.830;2022-11-22T07:35:39;3.60;99.90
21635;DHT22;10979;48.306;9.830;2022-11-22T07:38:04;3.70;99.90
21635;DHT22;10979;48.306;9.830;2022-11-22T07:40:30;3.70;99.90
21635;DHT22;10979;48.306;9.830;2022-11-22T07:42:56;3.80;99.90
21635;DHT22;10979;48.306;9.830;2022-11-22T07:45:22;3.90;99.90
21635;DHT22;10979;48.306;9.830;2022-11-22T07:47:47;3.80;99.90
21635;DHT22;10979;48.306;9.830;2022-11-22T07:50:13;3.80;99.90
21635;DHT22;10979;48.306;9.830;2022-11-22T07:52:39;3.90;99.90
21635;DHT22;10979;48.306;9.830;2022-11-22T07:55:05;4.00;99.90
21635;DHT22;10979;48.306;9.830;2022-11-22T07:57:31;3.90;99.90
21635;DHT22;10979;48.306;9.830;2022-11-22T07:59:57;3.90;99.90
21635;DHT22;10979;48.306;9.830;2022-11-22T08:02:23;3.90;99.90
21635;DHT22;10979;48.306;9.830;2022-11-22T08:04:48;4.00;99.90
21635;DHT22;10979;48.306;9.830;2022-11-22T08:07:14;4.00;99.90
21635;DHT22;10979;48.306;9.830;2022-11-22T08:09:39;4.10;99.90
21635;DHT22;10979;48.306;9.830;2022-11-22T08:12:05;4.20;99.90
21635;DHT22;10979;48.306;9.830;2022-11-22T08:14:30;4.20;99.90
21635;DHT22;10979;48.306;9.830;2022-11-22T08:16:56;4.30;99.90
21635;DHT22;10979;48.306;9.830;2022-11-22T08:19:21;4.30;99.90
21635;DHT22;10979;48.306;9.830;2022-11-22T08:21:48;4.40;99.90
21635;DHT22;10979;48.306;9.830;2022-11-22T08:24:14;4.40;99.90
21635;DHT22;10979;48.306;9.830;2022-11-22T08:26:40;4.40;99.90
21635;DHT22;10979;48.306;9.830;2022-11-22T08:29:07;4.40;99.90
21635;DHT22;10979;48.306;9.830;2022-11-22T08:31:33;4.50;99.90
21635;DHT22;10979;48.306;9.830;2022-11-22T08:33:59;4.60;99.90
21635;DHT22;10979;48.306;9.830;2022-11-22T08:36:28;4.70;99.90
21635;DHT22;10979;48.306;9.830;2022-11-22T08:38:55;4.70;99.90
21635;DHT22;10979;48.306;9.830;2022-11-22T08:41:21;4.80;99.90
21635;DHT22;10979;48.306;9.830;2022-11-22T08:43:50;4.80;99.90
21635;DHT22;10979;48.306;9.830;2022-11-22T08:46:16;4.80;99.90
21635;DHT22;10979;48.306;9.830;2022-11-22T08:48:42;4.90;99.90
21635;DHT22;10979;48.306;9.830;2022-11-22T08:51:09;5.00;99.90
21635;DHT22;10979;48.306;9.830;2022-11-22T08:53:37;5.10;99.90
21635;DHT22;10979;48.306;9.830;2022-11-22T08:56:05;5.10;99.90
21635;DHT22;10979;48.306;9.830;2022-11-22T08:58:32;5.20;99.90
21635;DHT22;10979;48.306;9.830;2022-11-22T09:01:12;5.30;99.90
21635;DHT22;10979;48.306;9.830;2022-11-22T09:03:39;5.30;99.90
21635;DHT22;10979;48.306;9.830;2022-11-22T09:06:08;5.40;99.90
21635;DHT22;10979;48.306;9.830;2022-11-22T09:08:36;5.40;99.90
21635;DHT22;10979;48.306;9.830;2022-11-22T09:11:07;5.40;99.90
21635;DHT22;10979;48.306;9.830;2022-11-22T09:13:34;5.50;99.90
21635;DHT22;10979;48.306;9.830;2022-11-22T09:16:04;5.50;99.90
21635;DHT22;10979;48.306;9.830;2022-11-22T09:18:30;5.60;99.90
21635;DHT22;10979;48.306;9.830;2022-11-22T09:20:57;5.60;99.90
21635;DHT22;10979;48.306;9.830;2022-11-22T09:23:23;5.70;99.90
21635;DHT22;10979;48.306;9.830;2022-11-22T09:25:56;5.70;99.90
21635;DHT22;10979;48.306;9.830;2022-11-22T09:28:21;5.80;99.90
21635;DHT22;10979;48.306;9.830;2022-11-22T09:30:47;5.90;99.90
21635;DHT22;10979;48.306;9.830;2022-11-22T09:33:12;6.00;99.90
21635;DHT22;10979;48.306;9.830;2022-11-22T09:35:38;6.10;99.90
21635;DHT22;10979;48.306;9.830;2022-11-22T09:38:03;6.00;99.90
21635;DHT22;10979;48.306;9.830;2022-11-22T09:40:29;6.10;99.90
21635;DHT22;10979;48.306;9.830;2022-11-22T09:43:10;6.20;99.90
21635;DHT22;10979;48.306;9.830;2022-11-22T09:49:40;6.30;99.90
21635;DHT22;10979;48.306;9.830;2022-11-22T09:52:08;6.40;99.90
21635;DHT22;10979;48.306;9.830;2022-11-22T09:54:55;6.50;99.90
21635;DHT22;10979;48.306;9.830;2022-11-22T09:57:32;6.40;99.90
21635;DHT22;10979;48.306;9.830;2022-11-22T10:00:04;6.50;99.90
21635;DHT22;10979;48.306;9.830;2022-11-22T10:02:37;6.50;99.90
21635;DHT22;10979;48.306;9.830;2022-11-22T10:05:16;6.60;99.90
21635;DHT22;10979;48.306;9.830;2022-11-22T10:08:01;6.60;99.90
21635;DHT22;10979;48.306;9.830;2022-11-22T10:10:41;6.70;99.90
21635;DHT22;10979;48.306;9.830;2022-11-22T10:13:11;6.60;99.90
21635;DHT22;10979;48.306;9.830;2022-11-22T10:15:56;6.70;99.90
21635;DHT22;10979;48.306;9.830;2022-11-22T10:18:59;6.80;99.90
21635;DHT22;10979;48.306;9.830;2022-11-22T10:21:23;6.70;99.90
21635;DHT22;10979;48.306;9.830;2022-11-22T10:23:50;6.70;99.90
21635;DHT22;10979;48.306;9.830;2022-11-22T10:26:31;6.80;99.90
21635;DHT22;10979;48.306;9.830;2022-11-22T10:29:07;6.80;99.90
21635;DHT22;10979;48.306;9.830;2022-11-22T10:34:38;6.90;99.90
21635;DHT22;10979;48.306;9.830;2022-11-22T10:48:56;7.00;99.90
21635;DHT22;10979;48.306;9.830;2022-11-22T10:54:23;6.90;99.90
21635;DHT22;10979;48.306;9.830;2022-11-22T10:57:28;6.90;99.90
21635;DHT22;10979;48.306;9.830;2022-11-22T11:02:57;7.10;99.90
21635;DHT22;10979;48.306;9.830;2022-11-22T11:08:37;7.10;99.90
21635;DHT22;10979;48.306;9.830;2022-11-22T11:11:04;7.10;99.90
21635;DHT22;10979;48.306;9.830;2022-11-22T11:13:34;7.10;99.90
21635;DHT22;10979;48.306;9.830;2022-11-22T11:16:06;7.10;99.90
21635;DHT22;10979;48.306;9.830;2022-11-22T11:18:40;7.10;99.90
21635;DHT22;10979;48.306;9.830;2022-11-22T11:21:12;7.20;99.90
21635;DHT22;10979;48.306;9.830;2022-11-22T11:23:37;7.20;99.90
21635;DHT22;10979;48.306;9.830;2022-11-22T11:26:29;7.10;99.90
21635;DHT22;10979;48.306;9.830;2022-11-22T11:31:46;7.10;99.90
21635;DHT22;10979;48.306;9.830;2022-11-22T11:34:20;7.10;99.90
21635;DHT22;10979;48.306;9.830;2022-11-22T11:36:46;7.10;99.90
21635;DHT22;10979;48.306;9.830;2022-11-22T11:39:41;7.00;99.90
21635;DHT22;10979;48.306;9.830;2022-11-22T11:44:49;7.10;99.90
21635;DHT22;10979;48.306;9.830;2022-11-22T11:47:33;7.10;99.90
21635;DHT22;10979;48.306;9.830;2022-11-22T11:49:59;7.10;99.90
21635;DHT22;10979;48.306;9.830;2022-11-22T11:52:25;7.10;99.90
21635;DHT22;10979;48.306;9.830;2022-11-22T11:54:55;7.10;99.90
21635;DHT22;10979;48.306;9.830;2022-11-22T11:57:35;7.10;99.90
21635;DHT22;10979;48.306;9.830;2022-11-22T12:00:04;7.00;99.90
21635;DHT22;10979;48.306;9.830;2022-11-22T12:02:43;7.00;99.90
21635;DHT22;10979;48.306;9.830;2022-11-22T12:07:41;6.90;99.90
21635;DHT22;10979;48.306;9.830;2022-11-22T12:18:47;7.00;99.90
21635;DHT22;10979;48.306;9.830;2022-11-22T12:21:21;6.90;99.90
21635;DHT22;10979;48.306;9.830;2022-11-22T12:26:22;7.00;99.90
21635;DHT22;10979;48.306;9.830;2022-11-22T12:28:47;7.00;99.90
21635;DHT22;10979;48.306;9.830;2022-11-22T12:34:01;6.80;99.90
21635;DHT22;10979;48.306;9.830;2022-11-22T12:39:02;6.80;99.90
21635;DHT22;10979;48.306;9.830;2022-11-22T12:41:31;6.80;99.90
21635;DHT22;10979;48.306;9.830;2022-11-22T12:44:00;6.80;99.90
21635;DHT22;10979;48.306;9.830;2022-11-22T12:46:38;6.70;99.90
21635;DHT22;10979;48.306;9.830;2022-11-22T12:49:12;6.80;99.90
21635;DHT22;10979;48.306;9.830;2022-11-22T12:54:55;6.80;99.90
21635;DHT22;10979;48.306;9.830;2022-11-22T12:57:27;6.80;99.90
21635;DHT22;10979;48.306;9.830;2022-11-22T13:00:05;6.70;99.90
21635;DHT22;10979;48.306;9.830;2022-11-22T13:03:00;6.60;99.90
21635;DHT22;10979;48.306;9.830;2022-11-22T13:05:48;6.60;99.90
21635;DHT22;10979;48.306;9.830;2022-11-22T13:13:35;6.60;99.90
21635;DHT22;10979;48.306;9.830;2022-11-22T13:16:07;6.60;99.90
21635;DHT22;10979;48.306;9.830;2022-11-22T13:18:37;6.50;99.90
21635;DHT22;10979;48.306;9.830;2022-11-22T13:29:42;6.50;99.90
21635;DHT22;10979;48.306;9.830;2022-11-22T13:34:57;6.50;99.90
21635;DHT22;10979;48.306;9.830;2022-11-22T13:37:24;6.50;99.90
21635;DHT22;10979;48.306;9.830;2022-11-22T13:39:50;6.50;99.90
21635;DHT22;10979;48.306;9.830;2022-11-22T13:42:26;6.40;99.90
21635;DHT22;10979;48.306;9.830;2022-11-22T13:47:56;6.50;99.90
21635;DHT22;10979;48.306;9.830;2022-11-22T13:55:44;6.40;99.90
21635;DHT22;10979;48.306;9.830;2022-11-22T14:01:07;6.30;99.90
21635;DHT22;10979;48.306;9.830;2022-11-22T14:03:49;6.30;99.90
21635;DHT22;10979;48.306;9.830;2022-11-22T14:06:22;6.20;99.90
21635;DHT22;10979;48.306;9.830;2022-11-22T14:08:48;6.20;99.90
21635;DHT22;10979;48.306;9.830;2022-11-22T14:14:11;6.20;99.90
21635;DHT22;10979;48.306;9.830;2022-11-22T14:19:48;6.10;99.90
21635;DHT22;10979;48.306;9.830;2022-11-22T14:25:01;6.00;99.90
21635;DHT22;10979;48.306;9.830;2022-11-22T14:30:18;6.00;99.90
21635;DHT22;10979;48.306;9.830;2022-11-22T14:32:59;6.00;99.90
21635;DHT22;10979;48.306;9.830;2022-11-22T14:35:30;5.90;99.90
21635;DHT22;10979;48.306;9.830;2022-11-22T14:38:03;5.90;99.90
21635;DHT22;10979;48.306;9.830;2022-11-22T14:43:03;5.70;99.90
21635;DHT22;10979;48.306;9.830;2022-11-22T14:45:42;5.70;99.90
21635;DHT22;10979;48.306;9.830;2022-11-22T14:48:20;5.70;99.90
21635;DHT22;10979;48.306;9.830;2022-11-22T14:53:56;5.60;99.90
21635;DHT22;10979;48.306;9.830;2022-11-22T14:56:33;5.60;99.90
21635;DHT22;10979;48.306;9.830;2022-11-22T15:04:55;5.40;99.90
21635;DHT22;10979;48.306;9.830;2022-11-22T15:13:11;5.30;99.90
21635;DHT22;10979;48.306;9.830;2022-11-22T15:15:36;5.20;99.90
21635;DHT22;10979;48.306;9.830;2022-11-22T15:20:36;5.10;99.90
21635;DHT22;10979;48.306;9.830;2022-11-22T15:23:17;5.00;99.90
21635;DHT22;10979;48.306;9.830;2022-11-22T15:25:49;5.00;99.90
21635;DHT22;10979;48.306;9.830;2022-11-22T15:28:21;4.90;99.90
21635;DHT22;10979;48.306;9.830;2022-11-22T15:30:48;4.90;99.90
21635;DHT22;10979;48.306;9.830;2022-11-22T15:33:26;4.80;99.90
21635;DHT22;10979;48.306;9.830;2022-11-22T15:36:05;4.80;99.90
21635;DHT22;10979;48.306;9.830;2022-11-22T15:38:32;4.70;99.90
21635;DHT22;10979;48.306;9.830;2022-11-22T15:41:03;4.70;99.90
21635;DHT22;10979;48.306;9.830;2022-11-22T15:43:29;4.70;99.90
21635;DHT22;10979;48.306;9.830;2022-11-22T15:45:55;4.60;99.90
21635;DHT22;10979;48.306;9.830;2022-11-22T15:48:25;4.70;99.90
21635;DHT22;10979;48.306;9.830;2022-11-22T15:53:33;4.60;99.90
21635;DHT22;10979;48.306;9.830;2022-11-22T15:56:30;4.50;99.90
21635;DHT22;10979;48.306;9.830;2022-11-22T15:58:57;4.40;99.90
21635;DHT22;10979;48.306;9.830;2022-11-22T16:01:22;4.40;99.90
21635;DHT22;10979;48.306;9.830;2022-11-22T16:03:58;4.30;99.90
21635;DHT22;10979;48.306;9.830;2022-11-22T16:06:25;4.20;99.90
21635;DHT22;10979;48.306;9.830;2022-11-22T16:08:57;4.10;99.90
21635;DHT22;10979;48.306;9.830;2022-11-22T16:11:35;4.10;99.90
21635;DHT22;10979;48.306;9.830;2022-11-22T16:14:01;4.00;99.90
21635;DHT22;10979;48.306;9.830;2022-11-22T16:16:32;3.90;99.90
21635;DHT22;10979;48.306;9.830;2022-11-22T16:22:00;3.70;99.90
21635;DHT22;10979;48.306;9.830;2022-11-22T16:24:30;3.70;99.90
21635;DHT22;10979;48.306;9.830;2022-11-22T16:27:01;3.70;99.90
21635;DHT22;10979;48.306;9.830;2022-11-22T16:29:32;3.60;99.90
21635;DHT22;10979;48.306;9.830;2022-11-22T16:32:12;3.60;99.90
21635;DHT22;10979;48.306;9.830;2022-11-22T16:34:38;3.60;99.90
21635;DHT22;10979;48.306;9.830;2022-11-22T16:37:27;3.50;99.90
21635;DHT22;10979;48.306;9.830;2022-11-22T16:39:54;3.50;99.90
21635;DHT22;10979;48.306;9.830;2022-11-22T16:42:20;3.50;99.90
21635;DHT22;10979;48.306;9.830;2022-11-22T16:44:45;3.40;99.90
21635;DHT22;10979;48.306;9.830;2022-11-22T16:47:14;3.30;99.90
21635;DHT22;10979;48.306;9.830;2022-11-22T16:49:40;3.20;99.90
21635;DHT22;10979;48.306;9.830;2022-11-22T16:52:10;3.20;99.90
21635;DHT22;10979;48.306;9.830;2022-11-22T16:54:37;3.20;99.90
21635;DHT22;10979;48.306;9.830;2022-11-22T16:57:07;3.30;99.90
21635;DHT22;10979;48.306;9.830;2022-11-22T16:59:33;3.20;99.90
21635;DHT22;10979;48.306;9.830;2022-11-22T17:01:59;3.20;99.90
21635;DHT22;10979;48.306;9.830;2022-11-22T17:04:25;3.20;99.90
21635;DHT22;10979;48.306;9.830;2022-11-22T17:06:52;3.10;99.90
21635;DHT22;10979;48.306;9.830;2022-11-22T17:09:18;3.00;99.90
21635;DHT22;10979;48.306;9.830;2022-11-22T17:11:44;3.00;99.90
21635;DHT22;10979;48.306;9.830;2022-11-22T17:14:13;3.00;99.90
21635;DHT22;10979;48.306;9.830;2022-11-22T17:16:39;2.80;99.90
21635;DHT22;10979;48.306;9.830;2022-11-22T17:19:04;2.80;99.90
21635;DHT22;10979;48.306;9.830;2022-11-22T17:21:31;2.70;99.90
21635;DHT22;10979;48.306;9.830;2022-11-22T17:23:59;2.70;99.90
21635;DHT22;10979;48.306;9.830;2022-11-22T17:26:25;2.70;99.90
21635;DHT22;10979;48.306;9.830;2022-11-22T17:28:51;2.70;99.90
21635;DHT22;10979;48.306;9.830;2022-11-22T17:31:19;2.70;99.90
21635;DHT22;10979;48.306;9.830;2022-11-22T17:34:02;2.70;99.90
21635;DHT22;10979;48.306;9.830;2022-11-22T17:36:38;2.70;99.90
21635;DHT22;10979;48.306;9.830;2022-11-22T17:39:09;2.70;99.90
21635;DHT22;10979;48.306;9.830;2022-11-22T17:41:35;2.70;99.90
21635;DHT22;10979;48.306;9.830;2022-11-22T17:44:02;2.60;99.90
21635;DHT22;10979;48.306;9.830;2022-11-22T17:46:29;2.60;99.90
21635;DHT22;10979;48.306;9.830;2022-11-22T17:48:56;2.60;99.90
21635;DHT22;10979;48.306;9.830;2022-11-22T17:51:23;2.70;99.90
21635;DHT22;10979;48.306;9.830;2022-11-22T17:53:49;2.60;99.90
21635;DHT22;10979;48.306;9.830;2022-11-22T17:56:15;2.60;99.90
21635;DHT22;10979;48.306;9.830;2022-11-22T17:58:41;2.60;99.90
21635;DHT22;10979;48.306;9.830;2022-11-22T18:01:18;2.60;99.90
21635;DHT22;10979;48.306;9.830;2022-11-22T18:03:45;2.60;99.90